EW8654 Weather Reports


time (UTC)temp
F
wind
direction
speed
knots
gust
knots
rain 1hr
in
rain 24hr
in
rain mn
in
humidity
%
barometer
mb
20190220170123 46 339 1.7 4.3 0.00 0.00 0.00 90 1014.7
20190220165122 46 288 0.9 2.6 0.00 0.00 0.00 90 1014.7
20190220164123 45 270 0.0 1.7 0.00 0.00 0.00 90 1014.7
20190220163123 45 339 1.7 3.5 0.00 0.00 0.00 90 1015.0
20190220162123 45 337 0.9 2.6 0.00 0.00 0.00 90 1014.7
20190220161123 45 292 0.0 0.9 0.00 0.00 0.00 90 1014.8
20190220160123 44 345 0.9 2.6 0.00 0.00 0.00 90 1014.8
20190220155122 45 351 1.7 2.6 0.00 0.00 0.00 90 1014.8
20190220154123 45 334 1.7 2.6 0.00 0.00 0.00 90 1014.9
20190220153122 44 327 0.9 3.5 0.00 0.00 0.00 90 1015.1
20190220152123 44 342 1.7 2.6 0.00 0.00 0.00 90 1015.1
20190220151122 44 343 1.7 3.5 0.00 0.00 0.00 90 1015.2
20190220150122 44 322 0.9 3.5 0.00 0.00 0.00 90 1015.1
20190220145123 44 319 0.0 1.7 0.00 0.00 0.00 90 1015.1
20190220144124 44 343 0.9 2.6 0.00 0.00 0.00 90 1014.9
20190220143122 44 356 0.9 2.6 0.00 0.00 0.00 90 1015.1
20190220142123 44 301 0.0 1.7 0.00 0.00 0.00 90 1015.0
20190220141123 44 312 1.7 2.6 0.00 0.00 0.00 90 1015.0
20190220140123 44 281 0.9 1.7 0.00 0.00 0.00 90 1015.2
20190220135123 44 292 0.0 0.9 0.00 0.00 0.00 90 1015.2
20190220134122 44 296 0.9 2.6 0.00 0.00 0.00 90 1015.5
20190220133123 44 292 1.7 2.6 0.00 0.00 0.00 90 1015.5
20190220132122 44 290 1.7 3.5 0.00 0.00 0.00 90 1015.5
20190220131122 44 294 1.7 3.5 0.00 0.00 0.00 90 1015.6
20190220130123 45 294 2.6 3.5 0.00 0.00 0.00 90 1015.6
20190220125124 45 312 2.6 4.3 0.00 0.00 0.00 90 1015.6
20190220124123 45 319 3.5 5.2 0.00 0.00 0.00 90 1015.9
20190220123122 46 308 3.5 6.1 0.00 0.00 0.00 90 1015.9
20190220122122 46 334 5.2 10.4 0.00 0.00 0.00 90 1015.9
20190220121123 46 354 4.3 6.1 0.00 0.00 0.00 90 1016.1
20190220120122 46 346 4.3 8.7 0.00 0.00 0.00 90 1016.1
20190220115124 46 335 3.5 7.0 0.00 0.00 0.00 90 1016.1
20190220114124 46 352 3.5 7.0 0.00 0.00 0.00 90 1016.4
20190220113124 45 320 3.5 6.1 0.00 0.00 0.00 90 1016.5
20190220112126 45 312 1.7 5.2 0.00 0.00 0.00 90 1016.7
20190220111125 44 316 1.7 2.6 0.00 0.00 0.00 90 1016.7
20190220110125 43 326 1.7 4.3 0.00 0.00 0.00 90 1016.9
20190220105125 42 325 0.9 2.6 0.00 0.00 0.00 90 1016.9
20190220104125 41 312 0.0 1.7 0.00 0.00 0.00 90 1017.0
20190220103126 41 270 0.0 0.9 0.00 0.00 0.00 90 1017.1
20190220102124 41 248 0.0 0.0 0.00 0.00 0.00 90 1017.1
20190220101124 41 270 0.0 0.0 0.00 0.00 0.00 90 1017.4
20190220100125 41 90 0.0 0.0 0.00 0.00 0.00 90 1017.3
20190220095127 41 158 0.0 0.0 0.00 0.00 0.00 90 1017.3
20190220094124 42 358 0.0 1.7 0.00 0.00 0.00 90 1017.2
20190220093124 41 344 0.9 2.6 0.00 0.00 0.00 90 1017.5
20190220092125 41 334 0.0 2.6 0.00 0.00 0.00 90 1017.6
20190220091124 40 23 0.0 0.0 0.00 0.00 0.00 90 1017.5
20190220090125 39 293 0.0 0.0 0.00 0.00 0.00 90 1017.7
20190220085124 39 270 0.0 0.0 0.00 0.00 0.00 90 1017.7
20190220084124 39 158 0.0 0.0 0.00 0.00 0.00 90 1017.7
20190220083125 39 23 0.0 0.0 0.00 0.00 0.00 90 1017.6
20190220082124 39 68 0.0 0.0 0.00 0.00 0.00 90 1017.7
20190220081126 39 293 0.0 0.0 0.00 0.00 0.00 90 1017.6
20190220080125 38 338 0.0 0.0 0.00 0.00 0.00 90 1017.5
20190220075124 39 68 0.0 0.0 0.00 0.00 0.00 90 1017.5
20190220074124 39 113 0.0 0.0 0.00 0.00 0.00 90 1017.8
20190220073124 39 234 0.0 1.7 0.00 0.00 0.00 90 1017.9
20190220072125 39 225 0.0 1.7 0.00 0.00 0.00 90 1017.9
20190220071124 40 270 0.0 0.0 0.00 0.00 0.00 90 1018.2
20190220070124 40 180 0.0 0.9 0.00 0.00 0.00 90 1018.3
20190220065124 41 315 0.0 1.7 0.00 0.00 0.00 90 1018.3
20190220064125 41 337 0.0 0.9 0.00 0.00 0.00 90 1018.4
20190220063128 41 23 0.0 0.9 0.00 0.00 0.00 90 1018.7
20190220062125 41 270 0.0 1.7 0.00 0.00 0.00 90 1018.8
20190220061124 42 270 0.0 0.0 0.00 0.00 0.00 90 1019.0
20190220060124 42 306 0.0 1.7 0.00 0.00 0.00 90 1019.1
20190220055124 43 339 0.9 2.6 0.00 0.00 0.00 90 1019.1
20190220054127 43 325 0.0 1.7 0.00 0.00 0.00 90 1018.9
20190220053125 44 270 0.0 0.0 0.00 0.00 0.00 90 1018.8
20190220052124 44 293 0.0 0.0 0.00 0.00 0.00 90 1019.0
20190220051125 45 23 0.0 0.0 0.00 0.00 0.00 90 1018.9
20190220050125 46 45 0.0 0.0 0.00 0.00 0.00 90 1018.5
20190220045126 46 158 0.0 0.0 0.00 0.00 0.00 90 1018.5
20190220044124 46 60 0.9 1.7 0.00 0.00 0.00 90 1018.7
20190220043124 47 152 0.9 2.6 0.00 0.00 0.00 90 1018.2
20190220042125 47 163 2.6 4.3 0.00 0.00 0.00 90 1018.1
20190220041124 47 179 2.6 3.5 0.00 0.00 0.00 90 1018.5
20190220040124 47 171 2.6 3.5 0.00 0.00 0.00 90 1018.2
20190220035127 47 171 2.6 4.3 0.00 0.00 0.00 90 1018.2
20190220034127 47 176 1.7 2.6 0.00 0.00 0.00 90 1018.9
20190220033127 47 160 1.7 2.6 0.00 0.00 0.00 90 1019.2
20190220032124 48 166 2.6 3.5 0.00 0.00 0.00 90 1019.1
20190220031124 48 165 1.7 3.5 0.00 0.00 0.00 90 1019.4
20190220030124 48 176 1.7 2.6 0.00 0.00 0.00 90 1019.4
20190220025124 48 173 2.6 3.5 0.00 0.00 0.00 90 1019.4
20190220024124 49 186 2.6 3.5 0.00 0.00 0.00 90 1019.4
20190220023125 49 185 1.7 3.5 0.00 0.00 0.00 90 1019.3
20190220022125 49 166 0.9 2.6 0.00 0.00 0.00 90 1019.3
20190220021125 50 172 2.6 3.5 0.00 0.00 0.00 90 1019.1
20190220020125 50 177 2.6 4.3 0.00 0.00 0.00 90 1019.5
20190220015124 51 221 1.7 3.5 0.00 0.00 0.00 89 1019.5
20190220014124 51 262 2.6 3.5 0.00 0.00 0.00 87 1019.7
20190220013125 52 268 1.7 4.3 0.00 0.00 0.00 86 1019.9
20190220012127 52 234 1.7 4.3 0.00 0.00 0.00 85 1019.6
20190220011124 53 232 1.7 4.3 0.00 0.00 0.00 84 1019.6
20190220010126 53 247 2.6 4.3 0.00 0.00 0.00 81 1019.6
20190220005124 54 256 2.6 6.1 0.00 0.00 0.00 79 1019.6
20190220004124 55 265 2.6 6.1 0.00 0.00 0.00 79 1019.9
20190220003124 56 261 4.3 6.1 0.00 0.00 0.00 79 1019.6
20190220002124 57 248 3.5 7.0 0.00 0.00 0.00 78 1019.9
20190220001124 57 259 3.5 6.1 0.00 0.00 0.00 75 1020.1
20190220000124 58 275 3.5 7.0 0.00 0.00 0.00 77 1020.6
20190219235124 58 267 3.5 7.0 0.00 0.00 0.00 74 1020.6
20190219234127 59 263 3.5 6.1 0.00 0.00 0.00 72 1020.7
20190219233124 59 265 4.3 7.0 0.00 0.00 0.00 72 1021.0
20190219232126 59 276 4.3 8.7 0.00 0.00 0.00 72 1020.9
20190219231124 59 266 4.3 8.7 0.00 0.00 0.00 74 1020.8
20190219230124 59 263 4.3 8.7 0.00 0.00 0.00 71 1020.5
20190219225124 59 268 4.3 7.0 0.00 0.00 0.00 75 1020.5
20190219224124 59 287 2.6 7.8 0.00 0.00 0.00 77 1020.7
20190219223124 60 279 2.6 5.2 0.00 0.00 0.00 78 1020.7
20190219222124 60 259 4.3 8.7 0.00 0.00 0.00 76 1020.8
20190219221124 59 267 3.5 8.7 0.00 0.00 0.00 75 1020.9
20190219220124 59 270 6.1 7.8 0.00 0.00 0.00 76 1021.0
20190219215124 60 261 4.3 8.7 0.00 0.00 0.00 73 1021.0
20190219214124 59 275 3.5 7.0 0.00 0.00 0.00 73 1021.1
20190219213125 60 275 4.3 7.0 0.00 0.00 0.00 72 1021.5
20190219212124 59 269 3.5 9.6 0.00 0.00 0.00 72 1021.5
20190219211124 58 261 3.5 6.1 0.00 0.00 0.00 74 1021.8
20190219210124 59 284 3.5 7.0 0.00 0.00 0.00 71 1022.0
20190219205124 59 285 3.5 6.1 0.00 0.00 0.00 71 1022.0
20190219204123 58 256 3.5 7.0 0.00 0.00 0.00 70 1022.1
20190219203123 57 293 2.6 5.2 0.00 0.00 0.00 71 1022.3
20190219202124 58 271 2.6 4.3 0.00 0.00 0.00 71 1022.6
20190219201125 57 253 2.6 5.2 0.00 0.00 0.00 76 1022.6
20190219200123 57 25 2.6 4.3 0.00 0.00 0.00 74 1022.9
20190219195124 55 355 2.6 4.3 0.00 0.00 0.00 75 1022.9
20190219194124 55 339 2.6 4.3 0.00 0.00 0.00 74 1023.3
20190219193124 55 295 2.6 4.3 0.00 0.00 0.00 73 1023.2
20190219192125 53 14 2.6 4.3 0.00 0.00 0.00 78 1023.4
20190219191123 53 343 2.6 4.3 0.00 0.00 0.00 79 1023.2
20190219190124 52 332 1.7 3.5 0.00 0.00 0.00 89 1023.5
20190219185143 51 1 2.6 4.3 0.00 0.00 0.00 89 1023.5
20190219184124 51 9 2.6 4.3 0.00 0.00 0.00 90 1023.4
20190219183124 50 16 2.6 5.2 0.00 0.00 0.00 90 1023.4
20190219182124 48 351 2.6 4.3 0.00 0.00 0.00 90 1023.4
20190219181124 47 346 2.6 4.3 0.00 0.00 0.00 90 1023.5
20190219180124 47 11 1.7 4.3 0.00 0.00 0.00 90 1023.7
20190219175124 45 352 2.6 3.5 0.00 0.00 0.00 90 1023.7
20190219174124 44 16 1.7 3.5 0.00 0.00 0.00 90 1023.9
20190219173124 43 0 1.7 3.5 0.00 0.00 0.00 90 1023.8
20190219172129 42 337 1.7 3.5 0.00 0.00 0.00 90 1023.9
20190219171124 40 356 1.7 3.5 0.00 0.00 0.00 90 1024.1